createdAt,value
2018-07-27T00:00:07.917Z,26.00
2018-07-27T00:01:11.315Z,26.00
2018-07-27T00:02:14.715Z,25.90
2018-07-27T00:03:18.158Z,25.90
2018-07-27T00:04:21.565Z,25.90
2018-07-27T00:05:25.119Z,25.90
2018-07-27T00:06:28.439Z,25.80
2018-07-27T00:07:31.824Z,25.80
2018-07-27T00:08:35.228Z,25.80
2018-07-27T00:09:38.698Z,25.80
2018-07-27T00:10:42.093Z,25.80
2018-07-27T00:11:45.638Z,25.80
2018-07-27T00:12:49.021Z,25.80
2018-07-27T00:13:52.413Z,25.80
2018-07-27T00:14:55.968Z,25.80
2018-07-27T00:15:59.306Z,25.70
2018-07-27T00:17:02.804Z,25.70
2018-07-27T00:18:06.516Z,25.60
2018-07-27T00:19:10.117Z,25.70
2018-07-27T00:20:13.460Z,25.60
2018-07-27T00:21:16.812Z,25.60
2018-07-27T00:22:20.204Z,25.60
2018-07-27T00:23:23.602Z,25.60
2018-07-27T00:24:26.950Z,25.60
2018-07-27T00:25:30.356Z,25.60
2018-07-27T00:26:33.879Z,25.60
2018-07-27T00:27:37.199Z,25.60
2018-07-27T00:28:40.556Z,25.60
2018-07-27T00:29:44.022Z,25.50
2018-07-27T00:30:47.430Z,25.50
2018-07-27T00:31:50.828Z,25.50
2018-07-27T00:32:54.174Z,25.50
2018-07-27T00:33:57.569Z,25.50
2018-07-27T00:35:01.021Z,25.50
2018-07-27T00:36:04.381Z,25.50
2018-07-27T00:37:07.906Z,25.50
2018-07-27T00:38:11.324Z,25.50
2018-07-27T00:39:14.743Z,25.50
2018-07-27T00:40:18.084Z,25.40
2018-07-27T00:41:21.489Z,25.40
2018-07-27T00:42:25.074Z,25.40
2018-07-27T00:44:31.732Z,25.30
2018-07-27T00:45:35.325Z,25.40
2018-07-27T00:46:38.700Z,25.40
2018-07-27T00:47:42.284Z,25.30
2018-07-27T00:48:45.864Z,25.30
2018-07-27T00:49:49.701Z,25.30
2018-07-27T00:51:56.399Z,25.30
2018-07-27T00:52:59.841Z,25.30
2018-07-27T00:54:03.263Z,25.30
2018-07-27T00:55:06.921Z,25.20
2018-07-27T00:56:10.409Z,25.20
2018-07-27T00:57:13.799Z,25.20
2018-07-27T00:58:17.309Z,25.20
2018-07-27T00:59:20.710Z,25.20
2018-07-27T01:00:24.268Z,25.20
2018-07-27T01:01:27.764Z,25.20
2018-07-27T01:02:31.181Z,25.20
2018-07-27T01:03:34.555Z,25.20
2018-07-27T01:04:37.957Z,25.20
2018-07-27T01:05:41.484Z,25.20
2018-07-27T01:06:44.876Z,25.20
2018-07-27T01:07:48.247Z,25.20
2018-07-27T01:08:51.633Z,25.20
2018-07-27T01:09:55.115Z,25.10
2018-07-27T01:10:58.610Z,25.20
2018-07-27T01:12:02.071Z,25.10
2018-07-27T01:13:05.427Z,25.10
2018-07-27T01:15:12.050Z,25.10
2018-07-27T01:16:15.455Z,25.00
2018-07-27T01:17:18.320Z,25.00
2018-07-27T01:18:21.750Z,25.00
2018-07-27T01:19:25.207Z,25.00
2018-07-27T01:20:28.710Z,25.00
2018-07-27T01:21:32.123Z,25.10
2018-07-27T01:22:35.531Z,25.00
2018-07-27T01:23:38.979Z,25.10
2018-07-27T01:24:42.468Z,25.10
2018-07-27T01:25:45.804Z,25.10
2018-07-27T01:26:49.166Z,25.10
2018-07-27T01:27:52.529Z,25.10
2018-07-27T01:28:55.880Z,25.10
2018-07-27T01:29:59.267Z,25.10
2018-07-27T01:31:02.681Z,25.10
2018-07-27T01:32:06.531Z,25.10
2018-07-27T01:33:10.034Z,25.10
2018-07-27T01:34:13.512Z,25.00
2018-07-27T01:35:16.887Z,25.10
2018-07-27T01:36:20.654Z,25.10
2018-07-27T01:37:24.367Z,25.00
2018-07-27T01:38:27.717Z,25.00
2018-07-27T01:39:31.103Z,25.00
2018-07-27T01:40:34.565Z,25.10
2018-07-27T01:41:37.976Z,25.00
2018-07-27T01:42:41.458Z,25.00
2018-07-27T01:43:45.013Z,25.00
2018-07-27T01:44:48.402Z,25.00
2018-07-27T01:45:51.751Z,25.00
2018-07-27T01:46:55.159Z,25.10
2018-07-27T01:47:57.919Z,25.00
2018-07-27T01:49:01.339Z,25.00
2018-07-27T01:50:05.037Z,25.00
2018-07-27T01:51:08.464Z,25.00
2018-07-27T01:52:11.878Z,25.00
2018-07-27T01:53:15.295Z,25.00
2018-07-27T01:54:18.918Z,25.00
2018-07-27T01:55:22.278Z,25.00
2018-07-27T01:56:25.869Z,25.00
2018-07-27T01:57:29.365Z,25.00
2018-07-27T01:58:32.842Z,25.00
2018-07-27T02:00:39.424Z,25.00
2018-07-27T02:01:42.952Z,25.00
2018-07-27T02:02:46.261Z,25.00
2018-07-27T02:03:49.711Z,25.00
2018-07-27T02:04:53.188Z,25.00
2018-07-27T02:05:56.597Z,24.90
2018-07-27T02:06:59.970Z,24.90
2018-07-27T02:08:03.415Z,24.90
2018-07-27T02:09:09.199Z,24.90
2018-07-27T02:10:12.533Z,24.90
2018-07-27T02:11:15.920Z,24.90
2018-07-27T02:12:19.440Z,24.90
2018-07-27T02:13:22.807Z,24.90
2018-07-27T02:15:29.845Z,24.90
2018-07-27T02:16:33.224Z,24.90
2018-07-27T02:17:36.738Z,24.90
2018-07-27T02:18:40.248Z,24.90
2018-07-27T02:19:43.637Z,24.90
2018-07-27T02:21:50.282Z,24.90
2018-07-27T02:22:53.664Z,24.90
2018-07-27T02:23:57.015Z,24.90
2018-07-27T02:25:00.673Z,25.00
2018-07-27T02:27:07.276Z,24.90
2018-07-27T02:28:10.651Z,24.90
2018-07-27T02:29:14.100Z,24.90
2018-07-27T02:30:17.850Z,24.90
2018-07-27T02:31:21.188Z,24.90
2018-07-27T02:32:24.525Z,24.90
2018-07-27T02:33:28.007Z,24.90
2018-07-27T02:34:31.423Z,24.90
2018-07-27T02:35:35.060Z,24.90
2018-07-27T02:36:38.435Z,24.90
2018-07-27T02:37:41.757Z,24.90
2018-07-27T02:38:45.147Z,24.80
2018-07-27T02:39:48.611Z,24.90
2018-07-27T02:40:51.907Z,24.80
2018-07-27T02:41:55.331Z,24.80
2018-07-27T02:42:58.714Z,24.80
2018-07-27T02:44:02.025Z,24.80
2018-07-27T02:45:06.687Z,24.80
2018-07-27T02:46:10.727Z,24.80
2018-07-27T02:47:14.288Z,24.80
2018-07-27T02:48:17.623Z,24.80
2018-07-27T02:49:20.947Z,24.80
2018-07-27T02:50:24.389Z,24.80
2018-07-27T02:51:27.788Z,24.80
2018-07-27T02:52:31.228Z,24.80
2018-07-27T02:53:34.591Z,24.80
2018-07-27T02:54:37.910Z,24.70
2018-07-27T02:55:41.458Z,24.70
2018-07-27T02:56:44.847Z,24.70
2018-07-27T02:57:48.243Z,24.60
2018-07-27T02:58:51.741Z,24.60
2018-07-27T02:59:55.350Z,24.60
2018-07-27T03:00:58.713Z,24.60
2018-07-27T03:02:02.146Z,24.60
2018-07-27T03:03:05.500Z,24.60
2018-07-27T03:04:09.134Z,24.60
2018-07-27T03:05:12.573Z,24.60
2018-07-27T03:06:15.937Z,24.60
2018-07-27T03:07:19.411Z,24.50
2018-07-27T03:08:22.812Z,24.60
2018-07-27T03:09:26.370Z,24.50
2018-07-27T03:10:29.775Z,24.50
2018-07-27T03:11:33.234Z,24.50
2018-07-27T03:12:36.707Z,24.40
2018-07-27T03:13:40.082Z,24.50
2018-07-27T03:14:43.539Z,24.40
2018-07-27T03:15:46.923Z,24.40
2018-07-27T03:16:50.316Z,24.40
2018-07-27T03:17:53.739Z,24.40
2018-07-27T03:18:57.124Z,24.40
2018-07-27T03:20:00.451Z,24.30
2018-07-27T03:21:03.859Z,24.30
2018-07-27T03:22:07.341Z,24.30
2018-07-27T03:23:10.869Z,24.30
2018-07-27T03:24:14.418Z,24.30
2018-07-27T03:25:17.998Z,24.30
2018-07-27T03:26:21.375Z,24.20
2018-07-27T03:27:24.769Z,24.20
2018-07-27T03:28:28.328Z,24.20
2018-07-27T03:29:31.711Z,24.20
2018-07-27T03:30:35.133Z,24.10
2018-07-27T03:31:38.656Z,24.10
2018-07-27T03:32:42.042Z,24.10
2018-07-27T03:33:45.513Z,24.00
2018-07-27T03:34:49.082Z,24.10
2018-07-27T03:35:52.439Z,24.00
2018-07-27T03:36:55.904Z,24.00
2018-07-27T03:37:59.304Z,24.00
2018-07-27T03:39:02.891Z,24.00
2018-07-27T03:40:06.376Z,24.00
2018-07-27T03:41:11.481Z,24.00
2018-07-27T03:42:15.195Z,24.00
2018-07-27T03:43:18.815Z,24.00
2018-07-27T03:44:22.338Z,24.00
2018-07-27T03:45:25.934Z,23.90
2018-07-27T03:46:29.329Z,23.90
2018-07-27T03:49:39.187Z,23.90
2018-07-27T03:50:42.563Z,23.90
2018-07-27T03:51:46.162Z,23.80
2018-07-27T03:52:49.777Z,23.80
2018-07-27T03:53:53.370Z,23.80
2018-07-27T03:54:56.835Z,23.80
2018-07-27T03:56:00.293Z,23.80
2018-07-27T03:57:03.783Z,23.80
2018-07-27T03:58:07.228Z,23.80
2018-07-27T03:59:10.626Z,23.80
2018-07-27T04:00:14.164Z,23.80
2018-07-27T04:01:17.547Z,23.80
2018-07-27T04:02:21.048Z,23.70
2018-07-27T04:03:24.544Z,23.70
2018-07-27T04:04:28.040Z,23.70
2018-07-27T04:05:31.515Z,23.70
2018-07-27T04:06:35.016Z,23.70
2018-07-27T04:07:38.505Z,23.70
2018-07-27T04:08:41.974Z,23.70
2018-07-27T04:09:45.470Z,23.70
2018-07-27T04:10:48.886Z,23.70
2018-07-27T04:11:52.367Z,23.80
2018-07-27T04:12:55.780Z,23.80
2018-07-27T04:13:59.578Z,24.00
2018-07-27T04:15:03.193Z,24.10
2018-07-27T04:16:06.715Z,24.20
2018-07-27T04:17:11.157Z,24.40
2018-07-27T04:18:14.598Z,24.50
2018-07-27T04:19:18.204Z,24.70
2018-07-27T04:20:21.840Z,24.80
2018-07-27T04:21:25.522Z,25.00
2018-07-27T04:22:29.094Z,25.10
2018-07-27T04:23:32.585Z,25.30
2018-07-27T04:24:36.627Z,25.50
2018-07-27T04:25:40.427Z,25.60
2018-07-27T04:26:43.987Z,25.70
2018-07-27T04:27:47.638Z,25.80
2018-07-27T04:28:52.149Z,26.00
2018-07-27T04:29:55.734Z,26.10
2018-07-27T04:30:59.445Z,26.20
2018-07-27T04:32:02.869Z,26.30
2018-07-27T04:33:06.622Z,26.40
2018-07-27T04:34:10.359Z,26.50
2018-07-27T04:35:14.050Z,26.60
2018-07-27T04:36:17.578Z,26.70
2018-07-27T04:37:21.148Z,26.80
2018-07-27T04:38:24.759Z,26.90
2018-07-27T04:39:28.348Z,27.00
2018-07-27T04:40:31.850Z,27.10
2018-07-27T04:41:35.318Z,27.20
2018-07-27T04:42:39.358Z,27.30
2018-07-27T04:43:42.827Z,27.40
2018-07-27T04:44:46.243Z,27.40
2018-07-27T04:45:49.774Z,27.50
2018-07-27T04:46:53.265Z,27.50
2018-07-27T04:47:56.750Z,27.60
2018-07-27T04:49:00.305Z,27.60
2018-07-27T04:50:04.083Z,27.70
2018-07-27T04:51:07.729Z,27.60
2018-07-27T04:52:11.467Z,27.50
2018-07-27T04:53:14.908Z,27.40
2018-07-27T04:55:21.557Z,26.90
2018-07-27T04:56:24.962Z,26.70
2018-07-27T04:57:28.451Z,26.70
2018-07-27T04:58:31.825Z,26.70
2018-07-27T04:59:35.324Z,26.70
2018-07-27T05:00:38.959Z,26.60
2018-07-27T05:01:42.533Z,26.50
2018-07-27T05:02:45.997Z,26.50
2018-07-27T05:03:49.492Z,26.40
2018-07-27T05:04:52.909Z,26.30
2018-07-27T05:05:56.515Z,26.30
2018-07-27T05:06:59.980Z,26.30
2018-07-27T05:08:03.538Z,26.30
2018-07-27T05:09:13.441Z,26.20
2018-07-27T05:10:21.877Z,26.20
2018-07-27T05:11:25.434Z,26.20
2018-07-27T05:12:29.090Z,26.20
2018-07-27T05:13:32.619Z,26.10
2018-07-27T05:14:36.051Z,26.00
2018-07-27T05:15:39.518Z,25.80
2018-07-27T05:16:43.046Z,25.70
2018-07-27T05:17:46.596Z,25.70
2018-07-27T05:19:53.512Z,25.60
2018-07-27T05:20:56.962Z,25.60
2018-07-27T05:22:00.483Z,25.60
2018-07-27T05:23:03.882Z,25.50
2018-07-27T05:24:07.352Z,25.50
2018-07-27T05:25:10.883Z,25.50
2018-07-27T05:26:14.374Z,25.50
2018-07-27T05:27:17.923Z,25.50
2018-07-27T05:28:21.352Z,25.40
2018-07-27T05:29:24.884Z,25.30
2018-07-27T05:30:28.577Z,25.30
2018-07-27T05:31:32.224Z,25.30
2018-07-27T05:32:35.708Z,25.30
2018-07-27T05:33:39.134Z,25.40
2018-07-27T05:34:42.544Z,25.40
2018-07-27T05:35:46.191Z,25.40
2018-07-27T05:36:49.925Z,25.30
2018-07-27T05:37:53.449Z,25.20
2018-07-27T05:38:57.352Z,25.20
2018-07-27T05:40:00.797Z,25.20
2018-07-27T05:41:04.340Z,25.00
2018-07-27T05:42:07.766Z,24.80
2018-07-27T05:43:11.166Z,24.80
2018-07-27T05:44:14.751Z,24.90
2018-07-27T05:45:18.645Z,25.00
2018-07-27T05:46:30.858Z,25.00
2018-07-27T05:47:34.818Z,25.10
2018-07-27T05:49:44.130Z,25.10
2018-07-27T05:50:47.880Z,25.10
2018-07-27T05:51:56.477Z,25.20
2018-07-27T05:53:02.109Z,25.20
2018-07-27T05:54:06.403Z,25.30
2018-07-27T05:55:10.225Z,25.40
2018-07-27T05:56:14.855Z,25.50
2018-07-27T05:57:18.617Z,25.60
2018-07-27T05:58:25.587Z,25.60
2018-07-27T05:59:29.474Z,25.60
2018-07-27T06:00:33.420Z,25.70
2018-07-27T06:01:37.215Z,25.70
2018-07-27T06:02:40.861Z,25.80
2018-07-27T06:03:45.541Z,25.80
2018-07-27T06:04:49.301Z,25.80
2018-07-27T06:05:53.142Z,25.80
2018-07-27T06:08:00.483Z,25.90
2018-07-27T06:09:06.543Z,25.90
2018-07-27T06:10:10.155Z,25.80
2018-07-27T06:11:13.725Z,25.70
2018-07-27T06:12:17.189Z,25.70
2018-07-27T06:13:21.207Z,25.70
2018-07-27T06:14:24.715Z,25.70
2018-07-27T06:15:28.704Z,25.70
2018-07-27T06:16:32.170Z,25.80
2018-07-27T06:17:35.680Z,25.90
2018-07-27T06:18:39.139Z,26.00
2018-07-27T06:19:42.926Z,26.00
2018-07-27T06:20:46.628Z,26.00
2018-07-27T06:21:50.258Z,25.90
2018-07-27T06:22:53.844Z,26.00
2018-07-27T06:23:57.252Z,26.00
2018-07-27T06:25:00.912Z,26.00
2018-07-27T06:26:04.367Z,26.10
2018-07-27T06:27:07.859Z,26.20
2018-07-27T06:28:11.643Z,26.30
2018-07-27T06:29:15.133Z,26.40
2018-07-27T06:30:18.680Z,26.40
2018-07-27T06:31:22.173Z,26.50
2018-07-27T06:32:25.751Z,26.70
2018-07-27T06:33:29.479Z,26.70
2018-07-27T06:34:33.027Z,26.70
2018-07-27T06:35:40.194Z,26.70
2018-07-27T06:36:43.770Z,26.70
2018-07-27T06:37:47.606Z,26.70
2018-07-27T06:38:51.112Z,26.70
2018-07-27T06:39:54.937Z,26.70
2018-07-27T06:40:58.460Z,26.70
2018-07-27T06:42:02.121Z,26.70
2018-07-27T06:43:05.683Z,26.70
2018-07-27T06:44:09.176Z,26.70
2018-07-27T06:45:12.858Z,26.70
2018-07-27T06:46:16.217Z,26.70
2018-07-27T06:47:19.623Z,26.70
2018-07-27T06:48:23.111Z,26.70
2018-07-27T06:49:26.557Z,26.70
2018-07-27T06:50:30.062Z,26.70
2018-07-27T06:51:33.478Z,26.70
2018-07-27T06:52:36.819Z,26.70
2018-07-27T06:53:40.237Z,26.60
2018-07-27T06:56:50.308Z,26.40
2018-07-27T06:57:54.315Z,26.40
2018-07-27T06:58:57.721Z,26.40
2018-07-27T07:00:01.090Z,26.40
2018-07-27T07:01:04.750Z,26.50
2018-07-27T07:02:08.122Z,26.50
2018-07-27T07:03:11.841Z,26.60
2018-07-27T07:04:15.382Z,26.60
2018-07-27T07:05:18.967Z,26.70
2018-07-27T07:06:22.333Z,26.70
2018-07-27T07:07:25.775Z,26.70
2018-07-27T07:08:29.293Z,26.70
2018-07-27T07:09:32.753Z,26.70
2018-07-27T07:10:36.224Z,26.70
2018-07-27T07:11:40.270Z,26.70
2018-07-27T07:12:43.696Z,26.70
2018-07-27T07:13:47.260Z,26.70
2018-07-27T07:14:50.717Z,26.70
2018-07-27T07:15:54.131Z,26.70
2018-07-27T07:16:57.589Z,26.80
2018-07-27T07:18:01.108Z,26.80
2018-07-27T07:19:05.673Z,26.80
2018-07-27T07:20:09.315Z,26.90
2018-07-27T07:21:12.680Z,27.00
2018-07-27T07:22:16.160Z,27.00
2018-07-27T07:23:19.569Z,26.90
2018-07-27T07:24:22.945Z,26.90
2018-07-27T07:25:26.397Z,26.90
2018-07-27T07:27:33.082Z,26.90
2018-07-27T07:28:36.707Z,27.00
2018-07-27T07:29:40.093Z,27.00
2018-07-27T07:30:43.507Z,27.00
2018-07-27T07:31:47.221Z,27.00
2018-07-27T07:32:50.557Z,26.90
2018-07-27T07:33:53.909Z,26.80
2018-07-27T07:34:57.279Z,26.90
2018-07-27T07:36:00.657Z,26.90
2018-07-27T07:37:04.460Z,26.90
2018-07-27T07:38:07.871Z,27.00
2018-07-27T07:40:16.014Z,27.30
2018-07-27T07:41:19.395Z,27.30
2018-07-27T07:42:22.872Z,27.40
2018-07-27T07:43:26.328Z,27.40
2018-07-27T07:44:30.122Z,27.40
2018-07-27T07:45:33.706Z,27.40
2018-07-27T07:46:38.678Z,27.30
2018-07-27T07:47:42.376Z,27.30
2018-07-27T07:48:45.860Z,27.30
2018-07-27T07:49:49.778Z,27.30
2018-07-27T07:50:53.375Z,27.30
2018-07-27T07:51:56.856Z,27.40
2018-07-27T07:53:00.239Z,27.40
2018-07-27T07:54:03.687Z,27.40
2018-07-27T07:55:07.084Z,27.40
2018-07-27T07:56:10.510Z,27.50
2018-07-27T07:57:13.979Z,27.50
2018-07-27T07:58:17.403Z,27.50
2018-07-27T07:59:20.994Z,27.60
2018-07-27T08:01:27.678Z,27.70
2018-07-27T08:04:37.834Z,27.80
2018-07-27T08:05:41.338Z,27.80
2018-07-27T08:06:44.707Z,27.90
2018-07-27T08:07:48.135Z,27.80
2018-07-27T08:08:51.527Z,27.70
2018-07-27T08:09:55.409Z,27.60
2018-07-27T08:10:58.787Z,27.60
2018-07-27T08:12:02.162Z,27.60
2018-07-27T08:13:05.572Z,27.60
2018-07-27T08:14:08.926Z,27.70
2018-07-27T08:15:12.348Z,27.80
2018-07-27T08:16:15.902Z,27.80
2018-07-27T08:17:19.301Z,27.90
2018-07-27T08:18:22.684Z,28.00
2018-07-27T08:19:26.581Z,28.00
2018-07-27T08:20:30.280Z,28.20
2018-07-27T08:21:33.916Z,28.30
2018-07-27T08:22:37.355Z,28.40
2018-07-27T08:23:41.970Z,28.40
2018-07-27T08:24:45.679Z,28.40
2018-07-27T08:26:59.929Z,28.50
2018-07-27T08:28:20.164Z,28.50
2018-07-27T08:29:24.817Z,28.30
2018-07-27T08:30:28.345Z,28.20
2018-07-27T08:31:31.756Z,28.20
2018-07-27T08:33:38.420Z,28.20
2018-07-27T08:34:42.035Z,28.30
2018-07-27T08:35:45.376Z,28.40
2018-07-27T08:36:49.614Z,28.40
2018-07-27T08:37:53.012Z,28.50
2018-07-27T08:38:56.638Z,28.70
2018-07-27T08:40:00.137Z,28.70
2018-07-27T08:41:03.575Z,28.70
2018-07-27T08:42:07.130Z,28.80
2018-07-27T08:43:10.500Z,28.90
2018-07-27T08:44:15.356Z,28.80
2018-07-27T08:45:18.890Z,28.80
2018-07-27T08:46:22.507Z,28.90
2018-07-27T08:47:26.109Z,28.80
2018-07-27T08:48:29.540Z,28.90
2018-07-27T08:49:33.215Z,28.90
2018-07-27T08:50:36.840Z,28.90
2018-07-27T08:51:40.405Z,29.00
2018-07-27T08:52:44.090Z,29.00
2018-07-27T08:53:47.589Z,29.10
2018-07-27T08:54:51.102Z,29.20
2018-07-27T08:55:54.589Z,29.20
2018-07-27T08:56:58.240Z,29.20
2018-07-27T08:58:01.706Z,29.30
2018-07-27T08:59:05.421Z,29.30
2018-07-27T09:00:08.932Z,29.30
2018-07-27T09:01:12.341Z,29.30
2018-07-27T09:02:16.074Z,29.40
2018-07-27T09:03:19.454Z,29.30
2018-07-27T09:04:22.913Z,29.30
2018-07-27T09:05:26.239Z,29.30
2018-07-27T09:06:31.128Z,29.40
2018-07-27T09:07:36.132Z,29.30
2018-07-27T09:08:40.636Z,29.30
2018-07-27T09:09:44.199Z,29.30
2018-07-27T09:10:47.712Z,29.30
2018-07-27T09:11:51.277Z,29.20
2018-07-27T09:12:54.703Z,29.00
2018-07-27T09:13:58.280Z,29.10
2018-07-27T09:15:01.670Z,29.00
2018-07-27T09:16:05.263Z,28.90
2018-07-27T09:17:08.810Z,28.90
2018-07-27T09:18:13.166Z,28.90
2018-07-27T09:19:16.669Z,29.00
2018-07-27T09:20:20.016Z,29.10
2018-07-27T09:21:23.370Z,29.20
2018-07-27T09:22:26.947Z,29.30
2018-07-27T09:23:30.295Z,29.40
2018-07-27T09:24:33.778Z,29.50
2018-07-27T09:25:37.283Z,29.60
2018-07-27T09:26:40.816Z,29.70
2018-07-27T09:27:44.290Z,29.80
2018-07-27T09:29:51.452Z,29.80
2018-07-27T09:30:55.795Z,29.80
2018-07-27T09:31:59.436Z,29.70
2018-07-27T09:33:02.994Z,29.80
2018-07-27T09:34:06.723Z,29.80
2018-07-27T09:35:10.220Z,29.90
2018-07-27T09:36:13.931Z,30.00
2018-07-27T09:38:21.058Z,29.90
2018-07-27T09:39:24.441Z,29.90
2018-07-27T09:40:27.987Z,29.90
2018-07-27T09:41:31.631Z,29.80
2018-07-27T09:42:35.418Z,29.80
2018-07-27T09:43:39.074Z,29.80
2018-07-27T09:44:42.498Z,29.70
2018-07-27T09:45:45.850Z,29.80
2018-07-27T09:46:49.215Z,29.80
2018-07-27T09:47:52.809Z,29.90
2018-07-27T09:48:56.563Z,30.00
2018-07-27T09:50:00.012Z,30.00
2018-07-27T09:51:03.850Z,30.10
2018-07-27T09:52:07.373Z,30.10
2018-07-27T09:53:11.012Z,30.20
2018-07-27T09:54:14.551Z,30.20
2018-07-27T09:55:18.015Z,30.30
2018-07-27T09:56:21.607Z,30.20
2018-07-27T09:57:25.160Z,30.20
2018-07-27T09:59:32.022Z,30.30
2018-07-27T10:00:41.104Z,30.30
2018-07-27T10:01:44.673Z,30.30
2018-07-27T10:02:48.324Z,30.40
2018-07-27T10:03:53.035Z,30.40
2018-07-27T10:04:56.480Z,30.40
2018-07-27T10:05:59.990Z,30.50
2018-07-27T10:07:03.546Z,30.50
2018-07-27T10:08:07.520Z,30.50
2018-07-27T10:09:11.163Z,30.50
2018-07-27T10:10:14.647Z,30.50
2018-07-27T10:11:18.473Z,30.50
2018-07-27T10:12:21.890Z,30.50
2018-07-27T10:13:25.316Z,30.40
2018-07-27T10:14:28.700Z,30.40
2018-07-27T10:15:32.135Z,30.30
2018-07-27T10:16:35.645Z,30.20
2018-07-27T10:17:39.109Z,30.10
2018-07-27T10:20:49.452Z,30.30
2018-07-27T10:21:52.962Z,30.40
2018-07-27T10:22:56.403Z,30.50
2018-07-27T10:23:59.828Z,30.50
2018-07-27T10:25:03.392Z,30.50
2018-07-27T10:26:07.046Z,30.60
2018-07-27T10:27:11.063Z,30.50
2018-07-27T10:28:14.842Z,30.40
2018-07-27T10:29:18.353Z,30.40
2018-07-27T10:30:21.839Z,30.40
2018-07-27T10:31:25.472Z,30.40
2018-07-27T10:32:29.004Z,30.40
2018-07-27T10:33:32.417Z,30.30
2018-07-27T10:35:39.503Z,30.20
2018-07-27T10:37:46.309Z,30.20
2018-07-27T10:38:49.742Z,30.40
2018-07-27T10:39:53.753Z,30.40
2018-07-27T10:40:57.226Z,30.50
2018-07-27T10:42:00.682Z,30.50
2018-07-27T10:43:04.323Z,30.70
2018-07-27T10:44:08.151Z,30.80
2018-07-27T10:45:11.820Z,30.90
2018-07-27T10:46:15.480Z,30.90
2018-07-27T10:47:19.089Z,31.00
2018-07-27T10:48:22.563Z,31.00
2018-07-27T10:49:25.993Z,30.90
2018-07-27T10:50:29.455Z,30.90
2018-07-27T10:51:33.047Z,30.90
2018-07-27T10:53:40.383Z,31.00
2018-07-27T10:54:43.783Z,31.10
2018-07-27T10:55:47.415Z,31.20
2018-07-27T10:56:50.796Z,31.30
2018-07-27T10:57:54.315Z,31.30
2018-07-27T10:58:57.749Z,31.40
2018-07-27T11:00:01.455Z,31.40
2018-07-27T11:01:04.905Z,31.40
2018-07-27T11:02:08.442Z,31.40
2018-07-27T11:03:11.879Z,31.30
2018-07-27T11:04:15.416Z,31.10
2018-07-27T11:05:18.752Z,31.10
2018-07-27T11:06:22.082Z,31.00
2018-07-27T11:08:29.068Z,31.10
2018-07-27T11:09:32.550Z,31.10
2018-07-27T11:10:35.924Z,31.00
2018-07-27T11:11:40.621Z,31.00
2018-07-27T11:12:44.307Z,31.10
2018-07-27T11:13:47.688Z,31.10
2018-07-27T11:14:51.050Z,31.20
2018-07-27T11:15:54.407Z,31.20
2018-07-27T11:18:01.217Z,31.20
2018-07-27T11:19:05.786Z,31.10
2018-07-27T11:20:09.210Z,31.10
2018-07-27T11:21:13.158Z,31.20
2018-07-27T11:23:20.458Z,31.20
2018-07-27T11:24:23.858Z,31.20
2018-07-27T11:25:27.277Z,31.20
2018-07-27T11:26:30.778Z,31.40
2018-07-27T11:27:34.258Z,31.50
2018-07-27T11:28:37.681Z,31.50
2018-07-27T11:29:41.371Z,31.60
2018-07-27T11:30:44.788Z,31.70
2018-07-27T11:31:48.240Z,31.70
2018-07-27T11:32:51.763Z,31.70
2018-07-27T11:33:55.170Z,31.90
2018-07-27T11:34:58.583Z,32.00
2018-07-27T11:36:02.063Z,32.10
2018-07-27T11:37:06.066Z,32.20
2018-07-27T11:38:09.404Z,32.20
2018-07-27T11:39:12.968Z,32.20
2018-07-27T11:40:16.741Z,32.10
2018-07-27T11:41:20.255Z,32.10
2018-07-27T11:43:27.049Z,32.20
2018-07-27T11:44:30.560Z,32.20
2018-07-27T11:45:34.046Z,32.20
2018-07-27T11:46:37.426Z,32.20
2018-07-27T11:47:41.721Z,32.30
2018-07-27T11:48:45.359Z,32.40
2018-07-27T11:49:48.940Z,32.50
2018-07-27T11:50:52.618Z,32.50
2018-07-27T11:51:56.080Z,32.40
2018-07-27T11:52:59.484Z,32.40
2018-07-27T11:54:03.027Z,32.40
2018-07-27T11:55:06.420Z,32.40
2018-07-27T11:56:09.855Z,32.40
2018-07-27T11:57:13.422Z,32.40
2018-07-27T11:58:17.003Z,32.30
2018-07-27T11:59:20.408Z,32.40
2018-07-27T12:00:23.942Z,32.40
2018-07-27T12:01:27.551Z,32.50
2018-07-27T12:02:31.106Z,32.50
2018-07-27T12:03:34.601Z,32.60
2018-07-27T12:04:38.089Z,32.60
2018-07-27T12:05:41.594Z,32.70
2018-07-27T12:06:45.238Z,32.70
2018-07-27T12:07:48.644Z,32.70
2018-07-27T12:08:52.040Z,32.70
2018-07-27T12:09:55.530Z,32.70
2018-07-27T12:10:58.922Z,32.70
2018-07-27T12:12:02.245Z,32.60
2018-07-27T12:13:06.475Z,32.50
2018-07-27T12:14:10.225Z,32.50
2018-07-27T12:15:13.815Z,32.40
2018-07-27T12:16:17.256Z,32.40
2018-07-27T12:17:20.617Z,32.30
2018-07-27T12:18:24.256Z,32.30
2018-07-27T12:19:27.629Z,32.40
2018-07-27T12:20:32.594Z,32.40
2018-07-27T12:21:35.997Z,32.30
2018-07-27T12:22:39.311Z,32.20
2018-07-27T12:23:42.711Z,32.20
2018-07-27T12:24:46.121Z,32.10
2018-07-27T12:25:49.491Z,32.20
2018-07-27T12:26:52.917Z,32.20
2018-07-27T12:29:01.527Z,32.30
2018-07-27T12:31:10.456Z,32.30
2018-07-27T12:32:13.819Z,32.40
2018-07-27T12:33:17.139Z,32.50
2018-07-27T12:34:20.872Z,32.60
2018-07-27T12:35:24.893Z,32.70
2018-07-27T12:36:28.191Z,32.70
2018-07-27T12:37:31.681Z,32.70
2018-07-27T12:38:35.122Z,32.70
2018-07-27T12:39:38.471Z,32.60
2018-07-27T12:40:41.791Z,32.50
2018-07-27T12:41:45.249Z,32.40
2018-07-27T12:42:48.599Z,32.40
2018-07-27T12:43:52.032Z,32.40
2018-07-27T12:44:55.398Z,32.40
2018-07-27T12:45:58.815Z,32.30
2018-07-27T12:47:02.231Z,32.30
2018-07-27T12:48:05.818Z,32.40
2018-07-27T12:49:09.451Z,32.40
2018-07-27T12:50:12.974Z,32.50
2018-07-27T12:51:16.405Z,32.50
2018-07-27T12:52:19.991Z,32.60
2018-07-27T12:53:23.403Z,32.60
2018-07-27T12:54:26.764Z,32.80
2018-07-27T12:55:30.145Z,32.90
2018-07-27T12:56:33.836Z,32.90
2018-07-27T12:57:37.279Z,32.90
2018-07-27T12:58:40.620Z,33.00
2018-07-27T12:59:44.079Z,33.10
2018-07-27T13:00:47.468Z,33.20
2018-07-27T13:01:50.865Z,33.20
2018-07-27T13:02:54.253Z,33.20
2018-07-27T13:03:57.670Z,33.30
2018-07-27T13:05:00.992Z,33.30
2018-07-27T13:06:04.492Z,33.30
2018-07-27T13:07:07.884Z,33.30
2018-07-27T13:08:11.217Z,33.30
2018-07-27T13:09:14.620Z,33.30
2018-07-27T13:10:18.189Z,33.30
2018-07-27T13:11:21.778Z,33.30
2018-07-27T13:12:25.106Z,33.30
2018-07-27T13:13:28.476Z,33.20
2018-07-27T13:15:35.216Z,33.10
2018-07-27T13:16:38.576Z,33.10
2018-07-27T13:17:41.977Z,33.20
2018-07-27T13:18:45.743Z,33.20
2018-07-27T13:20:55.605Z,33.20
2018-07-27T13:21:59.045Z,33.30
2018-07-27T13:23:02.777Z,33.20
2018-07-27T13:24:08.163Z,33.30
2018-07-27T13:25:12.884Z,33.30
2018-07-27T13:26:24.944Z,33.30
2018-07-27T13:27:21.476Z,33.30
2018-07-27T13:28:24.842Z,33.30
2018-07-27T13:29:28.248Z,33.20
2018-07-27T13:30:31.858Z,33.20
2018-07-27T13:31:49.666Z,33.10
2018-07-27T13:32:53.032Z,33.10
2018-07-27T13:34:16.838Z,33.10
2018-07-27T13:35:20.307Z,33.00
2018-07-27T13:36:23.946Z,33.00
2018-07-27T13:37:29.099Z,32.90
2018-07-27T13:39:36.908Z,32.80
2018-07-27T13:40:40.218Z,32.90
2018-07-27T13:41:43.504Z,32.90
2018-07-27T13:42:46.936Z,32.90
2018-07-27T13:44:53.697Z,32.90
2018-07-27T13:47:01.003Z,32.90
2018-07-27T13:48:04.463Z,32.90
2018-07-27T13:49:07.909Z,32.90
2018-07-27T13:50:11.236Z,33.00
2018-07-27T13:51:14.655Z,33.00
2018-07-27T13:52:18.444Z,33.00
2018-07-27T13:53:21.847Z,33.10
2018-07-27T13:54:25.418Z,33.10
2018-07-27T13:55:28.859Z,33.20
2018-07-27T13:56:32.244Z,33.20
2018-07-27T13:57:35.649Z,33.10
2018-07-27T13:58:39.029Z,33.10
2018-07-27T13:59:42.415Z,33.00
2018-07-27T14:00:45.792Z,32.90
2018-07-27T14:01:49.717Z,32.80
2018-07-27T14:02:53.231Z,32.70
2018-07-27T14:03:56.656Z,32.70
2018-07-27T14:05:00.039Z,32.70
2018-07-27T14:06:03.389Z,32.70
2018-07-27T14:07:07.659Z,32.70
2018-07-27T14:08:11.035Z,32.70
2018-07-27T14:09:14.424Z,32.70
2018-07-27T14:10:18.017Z,32.70
2018-07-27T14:11:21.595Z,32.60
2018-07-27T14:12:25.144Z,32.70
2018-07-27T14:13:28.576Z,32.70
2018-07-27T14:14:31.984Z,32.70
2018-07-27T14:15:35.445Z,32.70
2018-07-27T14:16:39.244Z,32.80
2018-07-27T14:17:42.590Z,32.80
2018-07-27T14:18:45.995Z,32.90
2018-07-27T14:19:49.346Z,32.90
2018-07-27T14:20:52.800Z,32.80
2018-07-27T14:21:56.392Z,32.80
2018-07-27T14:23:00.634Z,32.70